Flight Track Log - Related Links

Times and Time Zones

All times are in EDT time to prevent confusion due to time zone crossing. See the XA-ASH flight status page for this flight to view local times or setup timezone preferences in your user account.

Time Position Orientation Groundspeed Altitude Reporting Facility
EDT Latitude Longitude Course Direction KTS MPH feet Rate Location/Type
Thu 11:25:44 AM 25.8906 -97.4306 201° Southwest 171 197 800  Level Houston Center
Thu 11:26:02 AM 25.8744 -97.4375 201° Southwest 186 214 1,800 2,805 Climbing Houston Center
Thu 11:27:01 AM 25.8828 -97.5022 278° West 237 273 4,400 2,678 Climbing Houston Center
Thu 11:28:03 AM 25.8989 -97.5906 281° West 266 306 7,200 2,661 Climbing Houston Center
Thu 11:29:05 AM 25.9136 -97.6758 281° West 279 321 9,900 2,661 Climbing Houston Center
Thu 11:30:07 AM 25.9281 -97.7667 280° West 277 319 12,700 2,565 Climbing Houston Center
Thu 11:31:09 AM 25.9436 -97.8528 281° West 282 325 15,200 2,304 Climbing Houston Center
Thu 11:32:12 AM 25.9439 -97.9433 270° West 293 337 17,500 1,344 Climbing Houston Center
Thu 11:33:14 AM 25.9333 -98.0514 264° West 327 376 18,000 242 Climbing Houston Center
Thu 11:34:16 AM 25.9244 -98.1703 265° West 381 438 18,000  Level Houston Center
Thu 11:35:18 AM 25.9156 -98.2964 266° West 380 437 18,000  Level Houston Center
Thu 11:36:20 AM 25.9081 -98.4117 266° West 374 430 18,000  Level Houston Center
Thu 11:37:26 AM 25.8994 -98.5342 266° West 370 426 18,000 -145 Level Houston Center
Thu 11:38:24 AM 25.8919 -98.6386 265° West 342 394 17,700 -700 Descending Houston Center
Thu 11:39:26 AM 25.8828 -98.7428 264° West 340 391 16,600 -960 Descending Houston Center
Thu 11:40:29 AM 25.8764 -98.8419 266° West 350 403 15,700 -1,056 Descending Houston Center
Thu 11:41:31 AM 25.8642 -98.9786 264° West 361 415 14,400 -1,016 Descending Houston Center
Thu 11:42:33 AM 25.8561 -99.0939 266° West 366 421 13,600 -823 Descending Houston Center
Thu 11:43:35 AM 25.8481 -99.2028 265° West 366 421 12,700 -871 Descending Houston Center
Thu 11:44:37 AM 25.8400 -99.3114 265° West 361 415 11,800 -871 Descending Houston Center
Thu 11:45:39 AM 25.8311 -99.4139 265° West 353 406 10,900 -871 Descending Houston Center
Thu 11:46:41 AM 25.8228 -99.5156 265° West 345 397 10,000 -919 Descending Houston Center
Thu 11:47:43 AM 25.8161 -99.6217 266° West 320 368 9,000 -871 Descending Houston Center
Thu 11:48:45 AM 25.8067 -99.7022 263° West 294 338 8,200 -726 Descending Houston Center
Thu 11:49:47 AM 25.8108 -99.7800 273° West 279 321 7,500 -672 Descending Houston Center
Thu 11:50:50 AM 25.8464 -99.8450 301° West 260 299 6,800 -720 Descending Houston Center
Thu 11:51:52 AM 25.8811 -99.9072 302° West 247 284 6,000 -774 Descending Houston Center
Thu 11:52:54 AM 25.9156 -99.9692 302° West 243 280 5,200 -774 Descending Houston Center

Login

Don't have an account? Register now (free) for customized features, flight alerts, and more!